sensor_id;sensor_type;location;lat;lon;timestamp;pressure;altitude;pressure_sealevel;temperature;humidity
70103;BME280;57470;50.034;15.256;2023-01-26T00:00:46;100089.28;;;1.92;100.00
70103;BME280;57470;50.034;15.256;2023-01-26T00:03:12;100088.63;;;2.19;100.00
70103;BME280;57470;50.034;15.256;2023-01-26T00:05:37;100096.56;;;2.16;100.00
70103;BME280;57470;50.034;15.256;2023-01-26T00:08:04;100080.81;;;1.81;100.00
70103;BME280;57470;50.034;15.256;2023-01-26T00:10:30;100074.78;;;1.77;100.00
70103;BME280;57470;50.034;15.256;2023-01-26T00:12:55;100084.66;;;1.66;100.00
70103;BME280;57470;50.034;15.256;2023-01-26T00:15:21;100083.44;;;1.79;100.00
70103;BME280;57470;50.034;15.256;2023-01-26T00:17:47;100080.06;;;1.76;100.00
70103;BME280;57470;50.034;15.256;2023-01-26T00:20:12;100071.16;;;1.83;100.00
70103;BME280;57470;50.034;15.256;2023-01-26T00:22:38;100082.38;;;1.88;100.00
70103;BME280;57470;50.034;15.256;2023-01-26T00:25:03;100073.53;;;1.92;100.00
70103;BME280;57470;50.034;15.256;2023-01-26T00:27:31;100074.50;;;1.88;100.00
70103;BME280;57470;50.034;15.256;2023-01-26T00:29:57;100075.16;;;1.98;100.00
70103;BME280;57470;50.034;15.256;2023-01-26T00:32:22;100067.81;;;1.76;100.00
70103;BME280;57470;50.034;15.256;2023-01-26T00:34:47;100073.25;;;2.04;100.00
70103;BME280;57470;50.034;15.256;2023-01-26T00:37:13;100075.59;;;1.79;100.00
70103;BME280;57470;50.034;15.256;2023-01-26T00:39:38;100073.38;;;1.98;100.00
70103;BME280;57470;50.034;15.256;2023-01-26T00:42:03;100056.94;;;1.92;100.00
70103;BME280;57470;50.034;15.256;2023-01-26T00:44:37;100063.63;;;2.05;99.87
70103;BME280;57470;50.034;15.256;2023-01-26T00:47:04;100058.38;;;1.69;99.69
70103;BME280;57470;50.034;15.256;2023-01-26T00:49:29;100064.03;;;1.51;100.00
70103;BME280;57470;50.034;15.256;2023-01-26T00:51:55;100061.09;;;1.63;100.00
70103;BME280;57470;50.034;15.256;2023-01-26T00:54:20;100057.75;;;1.58;100.00
70103;BME280;57470;50.034;15.256;2023-01-26T00:56:45;100064.78;;;1.93;100.00
70103;BME280;57470;50.034;15.256;2023-01-26T00:59:11;100065.53;;;1.98;100.00
70103;BME280;57470;50.034;15.256;2023-01-26T01:01:36;100062.75;;;2.06;100.00
70103;BME280;57470;50.034;15.256;2023-01-26T01:04:02;100056.44;;;2.13;99.74
70103;BME280;57470;50.034;15.256;2023-01-26T01:06:27;100054.66;;;2.13;100.00
70103;BME280;57470;50.034;15.256;2023-01-26T01:08:53;100062.53;;;2.13;100.00
70103;BME280;57470;50.034;15.256;2023-01-26T01:11:18;100058.78;;;2.23;99.67
70103;BME280;57470;50.034;15.256;2023-01-26T01:13:43;100054.53;;;2.18;99.03
70103;BME280;57470;50.034;15.256;2023-01-26T01:16:11;100049.50;;;2.10;99.66
70103;BME280;57470;50.034;15.256;2023-01-26T01:18:37;100044.88;;;2.20;99.18
70103;BME280;57470;50.034;15.256;2023-01-26T01:21:11;100047.53;;;2.18;98.86
70103;BME280;57470;50.034;15.256;2023-01-26T01:23:37;100036.72;;;2.31;98.77
70103;BME280;57470;50.034;15.256;2023-01-26T01:26:04;100039.25;;;2.34;98.30
70103;BME280;57470;50.034;15.256;2023-01-26T01:28:30;100048.84;;;2.35;98.67
70103;BME280;57470;50.034;15.256;2023-01-26T01:30:56;100044.19;;;2.13;98.94
70103;BME280;57470;50.034;15.256;2023-01-26T01:33:22;100044.94;;;2.17;99.10
70103;BME280;57470;50.034;15.256;2023-01-26T01:35:58;100038.75;;;2.19;99.15
70103;BME280;57470;50.034;15.256;2023-01-26T01:38:25;100044.94;;;2.17;98.89
70103;BME280;57470;50.034;15.256;2023-01-26T01:40:51;100046.81;;;1.78;99.69
70103;BME280;57470;50.034;15.256;2023-01-26T01:43:16;100044.69;;;1.92;99.66
70103;BME280;57470;50.034;15.256;2023-01-26T01:45:44;100038.97;;;1.76;99.96
70103;BME280;57470;50.034;15.256;2023-01-26T01:48:24;100040.28;;;1.94;99.92
70103;BME280;57470;50.034;15.256;2023-01-26T01:50:55;100031.41;;;1.98;99.86
70103;BME280;57470;50.034;15.256;2023-01-26T01:53:34;100030.78;;;1.88;99.79
70103;BME280;57470;50.034;15.256;2023-01-26T01:56:05;100033.38;;;1.90;100.00
70103;BME280;57470;50.034;15.256;2023-01-26T01:58:36;100029.66;;;1.99;100.00
70103;BME280;57470;50.034;15.256;2023-01-26T02:01:02;100033.16;;;1.99;99.38
70103;BME280;57470;50.034;15.256;2023-01-26T02:03:28;100026.75;;;2.11;99.65
70103;BME280;57470;50.034;15.256;2023-01-26T02:06:01;100025.16;;;2.05;99.58
70103;BME280;57470;50.034;15.256;2023-01-26T02:11:09;100029.91;;;1.88;100.00
70103;BME280;57470;50.034;15.256;2023-01-26T02:13:36;100026.41;;;1.89;100.00
70103;BME280;57470;50.034;15.256;2023-01-26T02:16:02;100032.50;;;1.89;99.92
70103;BME280;57470;50.034;15.256;2023-01-26T02:18:28;100023.47;;;2.01;99.69
70103;BME280;57470;50.034;15.256;2023-01-26T02:21:02;100023.88;;;1.86;100.00
70103;BME280;57470;50.034;15.256;2023-01-26T02:23:34;100017.56;;;1.93;100.00
70103;BME280;57470;50.034;15.256;2023-01-26T02:26:13;100016.13;;;1.80;100.00
70103;BME280;57470;50.034;15.256;2023-01-26T02:28:40;100022.13;;;1.86;100.00
70103;BME280;57470;50.034;15.256;2023-01-26T02:31:07;100012.03;;;1.70;99.81
70103;BME280;57470;50.034;15.256;2023-01-26T02:33:34;100012.06;;;1.68;100.00
70103;BME280;57470;50.034;15.256;2023-01-26T02:35:59;100015.56;;;1.69;100.00
70103;BME280;57470;50.034;15.256;2023-01-26T02:38:32;100004.50;;;1.55;100.00
70103;BME280;57470;50.034;15.256;2023-01-26T02:41:07;100002.38;;;1.70;100.00
70103;BME280;57470;50.034;15.256;2023-01-26T02:43:33;100003.81;;;1.83;99.96
70103;BME280;57470;50.034;15.256;2023-01-26T02:45:59;100002.63;;;1.97;99.43
70103;BME280;57470;50.034;15.256;2023-01-26T02:48:24;99986.16;;;1.90;99.22
70103;BME280;57470;50.034;15.256;2023-01-26T02:51:08;99987.13;;;1.87;99.49
70103;BME280;57470;50.034;15.256;2023-01-26T02:53:35;99984.00;;;1.72;99.70
70103;BME280;57470;50.034;15.256;2023-01-26T02:56:02;99982.47;;;1.63;99.58
70103;BME280;57470;50.034;15.256;2023-01-26T02:58:29;99987.66;;;1.65;99.49
70103;BME280;57470;50.034;15.256;2023-01-26T03:00:55;99981.69;;;1.60;99.39
70103;BME280;57470;50.034;15.256;2023-01-26T03:03:25;99977.72;;;1.79;99.43
70103;BME280;57470;50.034;15.256;2023-01-26T03:06:10;99977.09;;;1.69;99.32
70103;BME280;57470;50.034;15.256;2023-01-26T03:08:38;99975.47;;;1.64;99.54
70103;BME280;57470;50.034;15.256;2023-01-26T03:11:07;99963.44;;;1.18;100.00
70103;BME280;57470;50.034;15.256;2023-01-26T03:13:34;99970.81;;;1.39;100.00
70103;BME280;57470;50.034;15.256;2023-01-26T03:16:01;99964.69;;;1.39;99.63
70103;BME280;57470;50.034;15.256;2023-01-26T03:18:33;99964.28;;;1.56;99.57
70103;BME280;57470;50.034;15.256;2023-01-26T03:21:19;99965.34;;;1.48;99.37
70103;BME280;57470;50.034;15.256;2023-01-26T03:24:04;99954.00;;;1.48;99.09
70103;BME280;57470;50.034;15.256;2023-01-26T03:26:49;99961.28;;;1.35;99.87
70103;BME280;57470;50.034;15.256;2023-01-26T03:29:34;99966.91;;;1.56;99.44
70103;BME280;57470;50.034;15.256;2023-01-26T03:32:01;99956.63;;;1.48;98.73
70103;BME280;57470;50.034;15.256;2023-01-26T03:34:28;99959.88;;;1.58;98.91
70103;BME280;57470;50.034;15.256;2023-01-26T03:36:54;99960.78;;;1.57;98.51
70103;BME280;57470;50.034;15.256;2023-01-26T03:39:19;99958.97;;;1.60;98.68
70103;BME280;57470;50.034;15.256;2023-01-26T03:42:03;99949.81;;;1.76;98.31
70103;BME280;57470;50.034;15.256;2023-01-26T03:44:48;99954.06;;;1.80;98.02
70103;BME280;57470;50.034;15.256;2023-01-26T03:47:32;99946.25;;;1.79;97.85
70103;BME280;57470;50.034;15.256;2023-01-26T03:50:17;99948.53;;;1.91;97.58
70103;BME280;57470;50.034;15.256;2023-01-26T03:53:01;99940.69;;;1.91;97.20
70103;BME280;57470;50.034;15.256;2023-01-26T03:55:45;99938.81;;;1.96;96.92
70103;BME280;57470;50.034;15.256;2023-01-26T03:58:29;99932.59;;;1.99;96.90
70103;BME280;57470;50.034;15.256;2023-01-26T04:00:57;99933.69;;;1.90;96.23
70103;BME280;57470;50.034;15.256;2023-01-26T04:03:23;99926.72;;;1.89;96.42
70103;BME280;57470;50.034;15.256;2023-01-26T04:06:07;99923.72;;;1.70;97.92
70103;BME280;57470;50.034;15.256;2023-01-26T04:08:51;99930.59;;;1.76;97.10
70103;BME280;57470;50.034;15.256;2023-01-26T04:11:16;99921.63;;;1.84;96.84
70103;BME280;57470;50.034;15.256;2023-01-26T04:13:42;99918.00;;;1.88;96.45
70103;BME280;57470;50.034;15.256;2023-01-26T04:16:25;99917.91;;;1.59;97.25
70103;BME280;57470;50.034;15.256;2023-01-26T04:19:09;99915.63;;;1.45;98.27
70103;BME280;57470;50.034;15.256;2023-01-26T04:21:53;99906.66;;;1.19;100.00
70103;BME280;57470;50.034;15.256;2023-01-26T04:24:19;99903.22;;;0.80;100.00
70103;BME280;57470;50.034;15.256;2023-01-26T04:26:46;99903.88;;;0.89;100.00
70103;BME280;57470;50.034;15.256;2023-01-26T04:29:14;99898.47;;;0.95;100.00
70103;BME280;57470;50.034;15.256;2023-01-26T04:31:40;99894.22;;;0.90;100.00
70103;BME280;57470;50.034;15.256;2023-01-26T04:34:10;99896.97;;;0.85;100.00
70103;BME280;57470;50.034;15.256;2023-01-26T04:36:36;99899.78;;;0.76;100.00
70103;BME280;57470;50.034;15.256;2023-01-26T04:39:01;99894.94;;;0.58;100.00
70103;BME280;57470;50.034;15.256;2023-01-26T04:41:28;99895.50;;;0.72;100.00
70103;BME280;57470;50.034;15.256;2023-01-26T04:43:55;99893.19;;;0.58;100.00
70103;BME280;57470;50.034;15.256;2023-01-26T04:46:20;99895.63;;;0.26;100.00
70103;BME280;57470;50.034;15.256;2023-01-26T04:48:46;99891.78;;;0.44;100.00
70103;BME280;57470;50.034;15.256;2023-01-26T04:51:16;99888.97;;;0.53;100.00
70103;BME280;57470;50.034;15.256;2023-01-26T04:53:44;99889.16;;;0.44;100.00
70103;BME280;57470;50.034;15.256;2023-01-26T04:56:27;99888.22;;;0.46;100.00
70103;BME280;57470;50.034;15.256;2023-01-26T04:58:53;99894.47;;;0.39;100.00
70103;BME280;57470;50.034;15.256;2023-01-26T05:01:19;99897.13;;;0.37;100.00
70103;BME280;57470;50.034;15.256;2023-01-26T05:03:45;99897.09;;;0.39;100.00
70103;BME280;57470;50.034;15.256;2023-01-26T05:06:11;99890.41;;;0.26;100.00
70103;BME280;57470;50.034;15.256;2023-01-26T05:08:36;99895.44;;;0.35;100.00
70103;BME280;57470;50.034;15.256;2023-01-26T05:11:02;99892.72;;;0.40;100.00
70103;BME280;57470;50.034;15.256;2023-01-26T05:13:27;99896.34;;;0.34;100.00
70103;BME280;57470;50.034;15.256;2023-01-26T05:15:53;99893.97;;;0.22;100.00
70103;BME280;57470;50.034;15.256;2023-01-26T05:18:18;99886.25;;;0.14;100.00
70103;BME280;57470;50.034;15.256;2023-01-26T05:20:44;99888.88;;;0.14;100.00
70103;BME280;57470;50.034;15.256;2023-01-26T05:23:09;99890.63;;;0.14;100.00
70103;BME280;57470;50.034;15.256;2023-01-26T05:25:34;99891.44;;;0.17;100.00
70103;BME280;57470;50.034;15.256;2023-01-26T05:28:00;99891.69;;;0.05;100.00
70103;BME280;57470;50.034;15.256;2023-01-26T05:30:25;99898.28;;;0.24;100.00
70103;BME280;57470;50.034;15.256;2023-01-26T05:32:51;99888.31;;;0.00;100.00
70103;BME280;57470;50.034;15.256;2023-01-26T05:35:16;99897.63;;;0.12;100.00
70103;BME280;57470;50.034;15.256;2023-01-26T05:37:41;99898.50;;;0.12;100.00
70103;BME280;57470;50.034;15.256;2023-01-26T05:40:09;99893.56;;;-0.02;100.00
70103;BME280;57470;50.034;15.256;2023-01-26T05:42:35;99894.34;;;0.02;100.00
70103;BME280;57470;50.034;15.256;2023-01-26T05:45:00;99892.56;;;0.04;100.00
70103;BME280;57470;50.034;15.256;2023-01-26T05:47:26;99893.06;;;0.23;100.00
70103;BME280;57470;50.034;15.256;2023-01-26T05:49:51;99897.53;;;0.18;100.00
70103;BME280;57470;50.034;15.256;2023-01-26T05:52:19;99891.19;;;0.29;100.00
70103;BME280;57470;50.034;15.256;2023-01-26T05:54:44;99894.59;;;0.34;100.00
70103;BME280;57470;50.034;15.256;2023-01-26T05:57:10;99886.09;;;0.22;100.00
70103;BME280;57470;50.034;15.256;2023-01-26T05:59:36;99889.69;;;0.18;100.00
70103;BME280;57470;50.034;15.256;2023-01-26T06:02:02;99876.50;;;0.22;100.00
70103;BME280;57470;50.034;15.256;2023-01-26T06:04:27;99874.59;;;0.30;100.00
70103;BME280;57470;50.034;15.256;2023-01-26T06:06:57;99872.56;;;0.02;100.00
70103;BME280;57470;50.034;15.256;2023-01-26T06:09:23;99872.31;;;0.14;100.00
70103;BME280;57470;50.034;15.256;2023-01-26T06:11:49;99876.00;;;0.05;100.00
70103;BME280;57470;50.034;15.256;2023-01-26T06:14:14;99879.72;;;-0.08;100.00
70103;BME280;57470;50.034;15.256;2023-01-26T06:16:40;99872.47;;;0.06;100.00
70103;BME280;57470;50.034;15.256;2023-01-26T06:19:06;99874.91;;;0.15;100.00
70103;BME280;57470;50.034;15.256;2023-01-26T06:21:32;99881.84;;;0.18;100.00
70103;BME280;57470;50.034;15.256;2023-01-26T06:23:58;99877.31;;;0.26;100.00
70103;BME280;57470;50.034;15.256;2023-01-26T06:26:24;99875.94;;;0.08;100.00
70103;BME280;57470;50.034;15.256;2023-01-26T06:28:50;99881.84;;;0.18;100.00
70103;BME280;57470;50.034;15.256;2023-01-26T06:31:16;99879.13;;;0.22;100.00
70103;BME280;57470;50.034;15.256;2023-01-26T06:33:42;99867.31;;;0.03;100.00
70103;BME280;57470;50.034;15.256;2023-01-26T06:36:11;99876.28;;;0.33;100.00
70103;BME280;57470;50.034;15.256;2023-01-26T06:38:38;99867.97;;;0.13;100.00
70103;BME280;57470;50.034;15.256;2023-01-26T06:41:07;99871.78;;;-0.02;100.00
70103;BME280;57470;50.034;15.256;2023-01-26T06:43:34;99871.81;;;-0.04;100.00
70103;BME280;57470;50.034;15.256;2023-01-26T06:46:00;99869.25;;;-0.08;100.00
70103;BME280;57470;50.034;15.256;2023-01-26T06:48:29;99871.75;;;-0.01;100.00
70103;BME280;57470;50.034;15.256;2023-01-26T06:53:43;99870.81;;;0.00;100.00
70103;BME280;57470;50.034;15.256;2023-01-26T06:56:11;99867.56;;;-0.09;100.00
70103;BME280;57470;50.034;15.256;2023-01-26T06:58:36;99870.22;;;-0.12;100.00
70103;BME280;57470;50.034;15.256;2023-01-26T07:01:02;99875.47;;;-0.14;100.00
70103;BME280;57470;50.034;15.256;2023-01-26T07:03:27;99877.19;;;-0.11;100.00
70103;BME280;57470;50.034;15.256;2023-01-26T07:05:53;99879.69;;;-0.07;100.00
70103;BME280;57470;50.034;15.256;2023-01-26T07:08:18;99874.38;;;-0.02;100.00
70103;BME280;57470;50.034;15.256;2023-01-26T07:10:43;99877.78;;;0.02;100.00
70103;BME280;57470;50.034;15.256;2023-01-26T07:13:09;99874.38;;;-0.02;100.00
70103;BME280;57470;50.034;15.256;2023-01-26T07:15:34;99874.41;;;-0.04;100.00
70103;BME280;57470;50.034;15.256;2023-01-26T07:18:00;99874.41;;;-0.04;100.00
70103;BME280;57470;50.034;15.256;2023-01-26T07:20:26;99871.66;;;0.04;100.00
70103;BME280;57470;50.034;15.256;2023-01-26T07:22:51;99879.41;;;0.09;100.00
70103;BME280;57470;50.034;15.256;2023-01-26T07:25:17;99871.50;;;0.12;100.00
70103;BME280;57470;50.034;15.256;2023-01-26T07:27:43;99873.31;;;0.08;100.00
70103;BME280;57470;50.034;15.256;2023-01-26T07:30:10;99880.31;;;0.08;100.00
70103;BME280;57470;50.034;15.256;2023-01-26T07:32:38;99873.91;;;0.21;100.00
70103;BME280;57470;50.034;15.256;2023-01-26T07:35:04;99872.38;;;0.11;100.00
70103;BME280;57470;50.034;15.256;2023-01-26T07:37:30;99870.44;;;0.20;100.00
70103;BME280;57470;50.034;15.256;2023-01-26T07:39:55;99863.38;;;0.25;100.00
70103;BME280;57470;50.034;15.256;2023-01-26T07:42:21;99862.88;;;0.08;100.00
70103;BME280;57470;50.034;15.256;2023-01-26T07:44:47;99872.31;;;0.15;100.00
70103;BME280;57470;50.034;15.256;2023-01-26T07:47:12;99863.94;;;-0.02;100.00
70103;BME280;57470;50.034;15.256;2023-01-26T07:49:39;99859.31;;;0.09;100.00
70103;BME280;57470;50.034;15.256;2023-01-26T07:52:05;99862.78;;;0.11;100.00
70103;BME280;57470;50.034;15.256;2023-01-26T07:54:31;99861.81;;;0.17;100.00
70103;BME280;57470;50.034;15.256;2023-01-26T07:56:56;99866.34;;;0.09;100.00
70103;BME280;57470;50.034;15.256;2023-01-26T07:59:22;99861.38;;;-0.07;100.00
70103;BME280;57470;50.034;15.256;2023-01-26T08:01:49;99860.34;;;0.02;100.00
70103;BME280;57470;50.034;15.256;2023-01-26T08:04:15;99858.56;;;0.04;100.00
70103;BME280;57470;50.034;15.256;2023-01-26T08:06:41;99859.81;;;0.28;100.00
70103;BME280;57470;50.034;15.256;2023-01-26T08:09:06;99871.94;;;0.33;100.00
70103;BME280;57470;50.034;15.256;2023-01-26T08:11:32;99871.84;;;0.36;100.00
70103;BME280;57470;50.034;15.256;2023-01-26T08:13:57;99868.59;;;0.25;100.00
70103;BME280;57470;50.034;15.256;2023-01-26T08:16:23;99866.88;;;0.24;100.00
70103;BME280;57470;50.034;15.256;2023-01-26T08:18:48;99871.91;;;0.35;100.00
70103;BME280;57470;50.034;15.256;2023-01-26T08:21:16;99874.56;;;0.32;100.00
70103;BME280;57470;50.034;15.256;2023-01-26T08:23:41;99873.41;;;0.45;100.00
70103;BME280;57470;50.034;15.256;2023-01-26T08:26:09;99870.97;;;0.36;100.00
70103;BME280;57470;50.034;15.256;2023-01-26T08:28:35;99870.19;;;0.32;100.00
70103;BME280;57470;50.034;15.256;2023-01-26T08:31:05;99864.91;;;0.75;100.00
70103;BME280;57470;50.034;15.256;2023-01-26T08:33:32;99869.50;;;0.64;100.00
70103;BME280;57470;50.034;15.256;2023-01-26T08:36:04;99860.50;;;0.78;100.00
70103;BME280;57470;50.034;15.256;2023-01-26T08:38:31;99859.19;;;0.57;100.00
70103;BME280;57470;50.034;15.256;2023-01-26T08:40:58;99867.34;;;0.83;100.00
70103;BME280;57470;50.034;15.256;2023-01-26T08:43:24;99864.72;;;0.83;100.00
70103;BME280;57470;50.034;15.256;2023-01-26T08:45:50;99860.09;;;0.94;100.00
70103;BME280;57470;50.034;15.256;2023-01-26T08:48:15;99860.72;;;0.67;100.00
70103;BME280;57470;50.034;15.256;2023-01-26T08:50:42;99859.44;;;0.46;100.00
70103;BME280;57470;50.034;15.256;2023-01-26T08:53:07;99860.06;;;0.96;100.00
70103;BME280;57470;50.034;15.256;2023-01-26T08:55:33;99860.03;;;0.97;100.00
70103;BME280;57470;50.034;15.256;2023-01-26T08:57:59;99861.44;;;1.10;100.00
70103;BME280;57470;50.034;15.256;2023-01-26T09:00:25;99863.97;;;1.15;100.00
70103;BME280;57470;50.034;15.256;2023-01-26T09:02:57;99870.97;;;1.15;100.00
70103;BME280;57470;50.034;15.256;2023-01-26T09:05:22;99871.75;;;1.18;100.00
70103;BME280;57470;50.034;15.256;2023-01-26T09:07:48;99865.97;;;1.04;100.00
70103;BME280;57470;50.034;15.256;2023-01-26T09:10:13;99869.31;;;1.10;100.00
70103;BME280;57470;50.034;15.256;2023-01-26T09:12:39;99870.88;;;0.81;100.00
70103;BME280;57470;50.034;15.256;2023-01-26T09:15:05;99864.69;;;0.85;100.00
70103;BME280;57470;50.034;15.256;2023-01-26T09:17:31;99872.00;;;1.07;100.00
70103;BME280;57470;50.034;15.256;2023-01-26T09:19:56;99869.84;;;0.89;100.00
70103;BME280;57470;50.034;15.256;2023-01-26T09:22:21;99876.31;;;1.10;100.00
70103;BME280;57470;50.034;15.256;2023-01-26T09:24:47;99868.34;;;1.15;100.00
70103;BME280;57470;50.034;15.256;2023-01-26T09:27:12;99872.78;;;1.11;100.00
70103;BME280;57470;50.034;15.256;2023-01-26T09:29:37;99870.56;;;1.31;100.00
70103;BME280;57470;50.034;15.256;2023-01-26T09:32:03;99873.69;;;1.10;100.00
70103;BME280;57470;50.034;15.256;2023-01-26T09:34:29;99860.97;;;0.55;100.00
70103;BME280;57470;50.034;15.256;2023-01-26T09:36:54;99875.97;;;0.88;100.00
70103;BME280;57470;50.034;15.256;2023-01-26T09:39:19;99862.00;;;0.88;100.00
70103;BME280;57470;50.034;15.256;2023-01-26T09:41:54;99861.75;;;0.61;100.00
70103;BME280;57470;50.034;15.256;2023-01-26T09:44:27;99860.03;;;0.59;100.00
70103;BME280;57470;50.034;15.256;2023-01-26T09:49:58;99856.53;;;0.98;100.00
70103;BME280;57470;50.034;15.256;2023-01-26T09:52:37;99860.91;;;0.98;100.00
70103;BME280;57470;50.034;15.256;2023-01-26T09:55:05;99857.72;;;0.84;100.00
70103;BME280;57470;50.034;15.256;2023-01-26T09:57:49;99848.69;;;0.60;100.00
70103;BME280;57470;50.034;15.256;2023-01-26T10:00:35;99853.69;;;0.70;100.00
70103;BME280;57470;50.034;15.256;2023-01-26T10:03:27;99850.06;;;0.76;100.00
70103;BME280;57470;50.034;15.256;2023-01-26T10:08:23;99849.22;;;0.35;100.00
70103;BME280;57470;50.034;15.256;2023-01-26T10:11:04;99853.59;;;0.35;100.00
70103;BME280;57470;50.034;15.256;2023-01-26T10:13:33;99842.94;;;0.81;100.00
70103;BME280;57470;50.034;15.256;2023-01-26T10:16:01;99844.63;;;0.84;100.00
70103;BME280;57470;50.034;15.256;2023-01-26T10:18:33;99844.84;;;0.74;100.00
70103;BME280;57470;50.034;15.256;2023-01-26T10:21:03;99837.22;;;0.64;100.00
70103;BME280;57470;50.034;15.256;2023-01-26T10:23:34;99844.97;;;0.70;100.00
70103;BME280;57470;50.034;15.256;2023-01-26T10:28:38;99846.59;;;0.74;100.00
70103;BME280;57470;50.034;15.256;2023-01-26T10:31:13;99837.41;;;0.93;100.00
70103;BME280;57470;50.034;15.256;2023-01-26T10:33:43;99834.41;;;1.10;100.00
70103;BME280;57470;50.034;15.256;2023-01-26T10:36:13;99829.94;;;1.13;100.00
70103;BME280;57470;50.034;15.256;2023-01-26T10:38:40;99831.28;;;1.30;100.00
70103;BME280;57470;50.034;15.256;2023-01-26T10:41:20;99834.31;;;0.78;100.00
70103;BME280;57470;50.034;15.256;2023-01-26T10:43:53;99836.50;;;0.96;100.00
70103;BME280;57470;50.034;15.256;2023-01-26T10:46:26;99843.72;;;0.86;100.00
70103;BME280;57470;50.034;15.256;2023-01-26T10:48:57;99829.16;;;0.73;100.00
70103;BME280;57470;50.034;15.256;2023-01-26T10:51:26;99828.00;;;1.22;100.00
70103;BME280;57470;50.034;15.256;2023-01-26T10:54:19;99828.88;;;1.22;100.00
70103;BME280;57470;50.034;15.256;2023-01-26T10:59:36;99821.69;;;1.29;100.00
70103;BME280;57470;50.034;15.256;2023-01-26T11:15:36;99801.34;;;1.06;100.00
70103;BME280;57470;50.034;15.256;2023-01-26T11:21:05;99795.41;;;1.33;100.00
70103;BME280;57470;50.034;15.256;2023-01-26T11:26:50;99799.91;;;1.61;100.00
70103;BME280;57470;50.034;15.256;2023-01-26T11:42:55;99786.00;;;1.25;100.00
70103;BME280;57470;50.034;15.256;2023-01-26T11:50:50;99795.22;;;1.72;100.00
70103;BME280;57470;50.034;15.256;2023-01-26T11:56:22;99785.69;;;1.69;100.00
70103;BME280;57470;50.034;15.256;2023-01-26T11:59:08;99774.09;;;1.78;100.00
70103;BME280;57470;50.034;15.256;2023-01-26T12:01:39;99775.31;;;1.96;100.00
70103;BME280;57470;50.034;15.256;2023-01-26T12:04:15;99779.41;;;2.06;99.42
70103;BME280;57470;50.034;15.256;2023-01-26T12:06:44;99774.97;;;1.77;98.93
70103;BME280;57470;50.034;15.256;2023-01-26T12:11:56;99766.75;;;2.18;98.00
70103;BME280;57470;50.034;15.256;2023-01-26T12:14:54;99776.66;;;2.38;98.15
70103;BME280;57470;50.034;15.256;2023-01-26T12:20:45;99762.25;;;2.23;97.48
70103;BME280;57470;50.034;15.256;2023-01-26T12:23:25;99758.06;;;2.16;98.57
70103;BME280;57470;50.034;15.256;2023-01-26T12:25:55;99752.56;;;2.25;98.42
70103;BME280;57470;50.034;15.256;2023-01-26T12:28:36;99752.97;;;2.41;97.81
70103;BME280;57470;50.034;15.256;2023-01-26T12:31:22;99756.56;;;2.37;97.02
70103;BME280;57470;50.034;15.256;2023-01-26T12:33:53;99751.91;;;2.47;95.63
70103;BME280;57470;50.034;15.256;2023-01-26T12:36:40;99742.47;;;1.82;97.88
70103;BME280;57470;50.034;15.256;2023-01-26T12:39:33;99742.25;;;1.90;98.88
70103;BME280;57470;50.034;15.256;2023-01-26T12:44:58;99734.50;;;1.56;100.00
70103;BME280;57470;50.034;15.256;2023-01-26T12:50:29;99726.69;;;2.13;98.09
70103;BME280;57470;50.034;15.256;2023-01-26T12:53:09;99727.53;;;1.86;96.66
70103;BME280;57470;50.034;15.256;2023-01-26T12:55:55;99729.91;;;1.94;97.74
70103;BME280;57470;50.034;15.256;2023-01-26T12:58:33;99722.50;;;2.36;96.72
70103;BME280;57470;50.034;15.256;2023-01-26T13:03:33;99723.63;;;2.55;96.10
70103;BME280;57470;50.034;15.256;2023-01-26T13:06:18;99727.78;;;2.62;94.89
70103;BME280;57470;50.034;15.256;2023-01-26T13:11:47;99705.78;;;2.66;94.21
70103;BME280;57470;50.034;15.256;2023-01-26T13:25:28;99707.88;;;1.99;96.37
70103;BME280;57470;50.034;15.256;2023-01-26T13:28:02;99699.69;;;2.38;97.46
70103;BME280;57470;50.034;15.256;2023-01-26T13:30:42;99698.88;;;2.36;96.97
70103;BME280;57470;50.034;15.256;2023-01-26T13:33:12;99704.78;;;2.69;96.54
70103;BME280;57470;50.034;15.256;2023-01-26T13:35:39;99703.78;;;2.46;96.81
70103;BME280;57470;50.034;15.256;2023-01-26T13:41:08;99704.03;;;2.11;97.25
70103;BME280;57470;50.034;15.256;2023-01-26T13:43:45;99707.31;;;2.45;97.38
70103;BME280;57470;50.034;15.256;2023-01-26T13:48:52;99703.09;;;2.68;96.31
70103;BME280;57470;50.034;15.256;2023-01-26T13:51:29;99699.09;;;2.56;96.13
70103;BME280;57470;50.034;15.256;2023-01-26T13:54:06;99703.91;;;1.86;97.22
70103;BME280;57470;50.034;15.256;2023-01-26T13:56:37;99703.25;;;2.35;97.45
70103;BME280;57470;50.034;15.256;2023-01-26T14:01:32;99695.97;;;2.45;96.26
70103;BME280;57470;50.034;15.256;2023-01-26T14:04:05;99702.69;;;2.53;95.67
70103;BME280;57470;50.034;15.256;2023-01-26T14:06:32;99698.81;;;2.65;95.66
70103;BME280;57470;50.034;15.256;2023-01-26T14:09:02;99697.56;;;2.22;96.39
70103;BME280;57470;50.034;15.256;2023-01-26T14:11:31;99700.81;;;1.72;97.69
70103;BME280;57470;50.034;15.256;2023-01-26T14:13:59;99707.75;;;1.43;100.00
70103;BME280;57470;50.034;15.256;2023-01-26T14:16:29;99710.16;;;1.82;100.00
70103;BME280;57470;50.034;15.256;2023-01-26T14:19:16;99700.19;;;2.22;100.00
70103;BME280;57470;50.034;15.256;2023-01-26T14:24:11;99694.16;;;2.47;98.76
70103;BME280;57470;50.034;15.256;2023-01-26T14:26:39;99696.50;;;2.28;97.37
70103;BME280;57470;50.034;15.256;2023-01-26T14:29:11;99693.81;;;2.57;97.84
70103;BME280;57470;50.034;15.256;2023-01-26T14:31:37;99691.00;;;2.36;97.49
70103;BME280;57470;50.034;15.256;2023-01-26T14:34:08;99692.47;;;1.88;99.32
70103;BME280;57470;50.034;15.256;2023-01-26T14:36:34;99694.59;;;1.76;100.00
70103;BME280;57470;50.034;15.256;2023-01-26T14:39:14;99686.56;;;2.10;99.46